METAR Data
IDs: Format: Raw Decoded Include TAF

Data at: 2136 UTC 01 Feb 2023

EDDV 012120Z AUTO 28014KT 9999 FEW022 05/02 Q1013

TAF EDDV 011700Z 0118/0218 28015KT 9999 SCT025
  TEMPO 0118/0203 29015G30KT
  PROB40
  TEMPO 0118/0124 30015G40KT SHRA SCT015CB
  PROB30
  TEMPO 0118/0120 TSRA
  BECMG 0203/0206 27010KT
  BECMG 0212/0215 21006KT
  PROB30
  TEMPO 0215/0218 RA